Time;durP1;ratioP1;P1;durP2;ratioP2;P2;SDS_P1;SDS_P2;PMS_P1;PMS_P2;Temp;Humidity;BMP_temperature;BMP_pressure;BME280_temperature;BME280_humidity;BME280_pressure;Samples;Min_cycle;Max_cycle;Signal;HPM_P1;HPM_P2
2023/03/17 00:01:16;;;;;;;5.65;3.20;;;8.30;99.90;;;;;;4953207;28;20557;-46
2023/03/17 00:03:44;;;;;;;6.15;3.42;;;8.00;99.90;;;;;;4954453;28;20050;-50
2023/03/17 00:06:26;;;;;;;7.68;3.20;;;8.00;99.90;;;;;;4953180;29;20039;-48
2023/03/17 00:08:52;;;;;;;6.90;3.58;;;8.00;99.90;;;;;;4954294;29;20042;-47
2023/03/17 00:11:18;;;;;;;6.68;3.45;;;8.10;99.90;;;;;;4951963;29;20043;-46
2023/03/17 00:13:45;;;;;;;7.80;3.67;;;8.10;99.90;;;;;;4953797;28;20133;-46
2023/03/17 00:16:20;;;;;;;6.22;3.30;;;8.10;99.90;;;;;;4954144;28;20485;-46
2023/03/17 00:18:48;;;;;;;5.72;3.22;;;8.10;99.90;;;;;;4954499;28;20479;-47
2023/03/17 00:21:16;;;;;;;7.53;3.50;;;8.10;99.90;;;;;;4954348;28;20488;-50
2023/03/17 00:23:49;;;;;;;6.18;3.50;;;8.10;99.90;;;;;;4953719;28;20383;-49
2023/03/17 00:26:15;;;;;;;6.60;3.40;;;8.10;99.90;;;;;;4952884;28;20043;-47
2023/03/17 00:28:41;;;;;;;7.20;3.58;;;8.00;99.90;;;;;;4952995;28;20043;-49
2023/03/17 00:31:28;;;;;;;8.95;3.80;;;8.00;99.90;;;;;;4952667;28;20043;-47
2023/03/17 00:33:55;;;;;;;8.35;3.40;;;8.10;99.90;;;;;;4953245;28;20187;-46
2023/03/17 00:36:29;;;;;;;7.63;3.63;;;8.00;99.90;;;;;;4953665;29;20047;-46
2023/03/17 00:38:56;;;;;;;11.32;4.10;;;7.90;99.90;;;;;;4952880;28;20047;-48
2023/03/17 00:41:22;;;;;;;8.35;3.55;;;7.90;99.90;;;;;;4953565;28;20046;-46
2023/03/17 00:43:49;;;;;;;6.65;3.80;;;7.90;99.90;;;;;;4952967;28;20050;-48
2023/03/17 00:46:26;;;;;;;8.18;3.65;;;8.10;99.90;;;;;;4968457;28;20054;-45
2023/03/17 00:48:52;;;;;;;6.38;3.13;;;7.90;99.90;;;;;;4953591;28;20422;-47
2023/03/17 00:51:17;;;;;;;7.57;3.53;;;7.90;99.90;;;;;;4968520;28;20047;-49
2023/03/17 00:53:43;;;;;;;6.78;3.40;;;7.90;99.90;;;;;;4953767;28;20102;-48
2023/03/17 00:56:17;;;;;;;5.82;3.60;;;7.90;99.90;;;;;;4951857;29;20035;-49
2023/03/17 00:58:44;;;;;;;7.90;3.50;;;7.80;99.90;;;;;;4953633;28;20047;-51
2023/03/17 01:01:10;;;;;;;6.25;3.28;;;7.90;99.90;;;;;;4953690;28;20047;-48
2023/03/17 01:03:37;;;;;;;7.03;3.13;;;7.90;99.90;;;;;;4948546;28;20046;-44
2023/03/17 01:06:05;;;;;;;8.75;4.20;;;7.90;99.90;;;;;;4953505;28;20047;-47
2023/03/17 01:08:31;;;;;;;6.47;3.28;;;7.90;99.90;;;;;;4952223;28;20074;-47
2023/03/17 01:10:58;;;;;;;5.97;3.70;;;7.90;99.90;;;;;;4952053;28;20102;-49
2023/03/17 01:13:24;;;;;;;8.35;3.63;;;7.90;99.90;;;;;;4950926;29;20139;-47
2023/03/17 01:15:51;;;;;;;8.52;3.88;;;7.90;99.90;;;;;;4952835;28;20050;-47
2023/03/17 01:18:20;;;;;;;6.85;3.47;;;7.90;99.90;;;;;;4951763;28;20035;-47
2023/03/17 01:20:46;;;;;;;7.68;3.15;;;7.90;99.90;;;;;;4952929;28;20039;-48
2023/03/17 01:23:12;;;;;;;6.93;3.50;;;7.90;99.90;;;;;;4953027;28;20074;-48
2023/03/17 01:25:40;;;;;;;7.55;3.30;;;7.90;99.90;;;;;;4951730;28;20110;-48
2023/03/17 01:28:06;;;;;;;10.05;3.75;;;7.90;99.90;;;;;;4952047;28;20050;-51
2023/03/17 01:30:36;;;;;;;9.13;3.92;;;7.90;99.90;;;;;;4952961;28;20557;-50
2023/03/17 01:33:03;;;;;;;6.80;3.75;;;7.90;99.90;;;;;;4951940;28;20055;-47
2023/03/17 01:35:30;;;;;;;8.15;3.40;;;7.90;99.90;;;;;;4951604;28;20461;-48
2023/03/17 01:37:56;;;;;;;6.43;3.40;;;7.80;99.90;;;;;;4966388;28;20038;-47
2023/03/17 01:40:29;;;;;;;9.55;3.88;;;7.80;99.90;;;;;;4952371;28;20050;-48
2023/03/17 01:43:09;;;;;;;6.70;3.72;;;7.80;99.90;;;;;;4951731;29;20403;-47
2023/03/17 01:46:12;;;;;;;6.50;3.20;;;7.80;99.90;;;;;;4952832;28;20042;-52
2023/03/17 01:48:59;;;;;;;6.22;3.53;;;7.80;99.90;;;;;;4952017;28;20035;-52
2023/03/17 01:51:37;;;;;;;6.93;3.60;;;7.70;99.90;;;;;;4952465;29;20135;-50
2023/03/17 01:54:09;;;;;;;7.70;3.70;;;7.70;99.90;;;;;;4952094;28;20040;-47
2023/03/17 01:56:36;;;;;;;7.25;3.67;;;7.70;99.90;;;;;;4950794;29;20047;-49
2023/03/17 01:59:05;;;;;;;7.13;3.53;;;7.60;99.90;;;;;;4952599;28;20125;-47
2023/03/17 02:01:36;;;;;;;6.60;3.35;;;7.60;99.90;;;;;;4948790;28;20070;-45
2023/03/17 02:04:03;;;;;;;6.55;3.30;;;7.70;99.90;;;;;;4950049;29;20041;-49
2023/03/17 02:06:29;;;;;;;6.53;3.40;;;7.70;99.90;;;;;;4952239;28;20114;-48
2023/03/17 02:08:56;;;;;;;7.03;3.10;;;7.60;99.90;;;;;;4952359;28;20558;-49
2023/03/17 02:11:22;;;;;;;6.65;3.38;;;7.60;99.90;;;;;;4951688;28;20043;-49
2023/03/17 02:13:48;;;;;;;7.13;3.78;;;7.60;99.90;;;;;;4951239;28;20051;-47
2023/03/17 02:16:16;;;;;;;6.25;3.70;;;7.60;99.90;;;;;;4951090;28;20043;-48
2023/03/17 02:18:42;;;;;;;7.28;3.97;;;7.60;99.90;;;;;;4950875;29;20050;-48
2023/03/17 02:22:01;;;;;;;7.47;3.85;;;7.60;99.90;;;;;;4952343;28;20062;-47
2023/03/17 02:24:32;;;;;;;6.80;3.95;;;7.60;99.90;;;;;;4940207;29;20055;-47
2023/03/17 02:27:18;;;;;;;7.50;3.58;;;7.60;99.90;;;;;;4949975;29;20479;-48
2023/03/17 02:29:45;;;;;;;7.18;3.17;;;7.60;99.90;;;;;;4950500;29;20043;-47
2023/03/17 02:32:13;;;;;;;6.07;3.20;;;7.60;99.90;;;;;;4951746;28;20055;-48
2023/03/17 02:34:38;;;;;;;6.30;3.92;;;7.60;99.90;;;;;;4951089;29;20051;-48
2023/03/17 02:37:06;;;;;;;6.70;3.40;;;7.60;99.90;;;;;;4966452;28;20094;-48
2023/03/17 02:39:33;;;;;;;6.43;3.70;;;7.60;99.90;;;;;;4965877;28;20071;-48
2023/03/17 02:41:59;;;;;;;9.77;3.92;;;7.60;99.90;;;;;;4952024;28;20082;-46
2023/03/17 02:44:25;;;;;;;7.57;3.72;;;7.60;99.90;;;;;;4951694;29;20439;-46
2023/03/17 02:46:51;;;;;;;6.88;3.72;;;7.60;99.90;;;;;;4952156;28;20039;-47
2023/03/17 02:49:17;;;;;;;6.90;3.50;;;7.70;99.90;;;;;;4950753;28;20471;-49
2023/03/17 02:51:44;;;;;;;6.50;3.80;;;7.60;99.90;;;;;;4951997;28;20372;-48
2023/03/17 02:54:09;;;;;;;9.63;3.40;;;7.50;99.90;;;;;;4950624;29;20518;-50
2023/03/17 02:56:35;;;;;;;6.20;3.50;;;7.60;99.90;;;;;;4966379;28;20059;-49
2023/03/17 02:59:01;;;;;;;6.55;3.22;;;7.60;99.90;;;;;;4965252;28;20035;-47
2023/03/17 03:01:28;;;;;;;7.47;3.42;;;7.60;99.90;;;;;;4952017;28;20098;-49
2023/03/17 03:03:54;;;;;;;6.60;3.58;;;7.70;99.90;;;;;;4950856;28;20054;-48
2023/03/17 03:06:20;;;;;;;7.30;3.22;;;6.70;99.90;;;;;;4950511;29;20031;-46
2023/03/17 03:08:45;;;;;;;7.25;3.80;;;7.50;99.90;;;;;;4947733;29;20032;-47
2023/03/17 03:11:11;;;;;;;6.75;3.30;;;7.50;99.90;;;;;;4951410;28;20031;-51
2023/03/17 03:13:37;;;;;;;7.95;3.50;;;7.60;99.90;;;;;;4952110;28;20054;-46
2023/03/17 03:16:03;;;;;;;7.30;3.60;;;7.50;99.90;;;;;;4950755;28;20055;-46
2023/03/17 03:18:29;;;;;;;6.90;3.55;;;7.50;99.90;;;;;;4951948;28;20050;-49
2023/03/17 03:20:55;;;;;;;7.75;3.75;;;7.50;99.90;;;;;;4950375;28;20047;-48
2023/03/17 03:23:21;;;;;;;6.25;3.20;;;7.50;99.90;;;;;;4951501;29;20094;-48
2023/03/17 03:25:46;;;;;;;7.80;3.55;;;7.50;99.90;;;;;;4951468;28;20094;-46
2023/03/17 03:28:12;;;;;;;6.35;3.35;;;7.50;99.90;;;;;;4951768;28;20475;-46
2023/03/17 03:30:38;;;;;;;7.38;3.47;;;7.60;99.90;;;;;;4950782;28;20490;-47
2023/03/17 03:33:05;;;;;;;6.60;2.78;;;7.50;99.90;;;;;;4950188;29;20059;-50
2023/03/17 03:35:31;;;;;;;8.23;3.58;;;7.50;99.90;;;;;;4949424;29;20043;-51
2023/03/17 03:37:58;;;;;;;6.97;3.70;;;7.50;99.90;;;;;;4950987;29;20051;-46
2023/03/17 03:40:25;;;;;;;6.05;3.05;;;7.50;99.90;;;;;;4951518;28;20483;-49
2023/03/17 03:42:50;;;;;;;6.32;3.28;;;7.50;99.90;;;;;;4950135;29;20495;-48
2023/03/17 03:45:16;;;;;;;8.38;3.45;;;7.60;99.90;;;;;;4950935;28;20041;-47
2023/03/17 03:47:42;;;;;;;7.78;3.60;;;7.50;99.90;;;;;;4949320;28;20036;-47
2023/03/17 03:50:09;;;;;;;5.68;3.28;;;7.40;99.90;;;;;;4954840;28;20043;-49
2023/03/17 03:52:35;;;;;;;6.25;3.17;;;7.40;99.90;;;;;;4954381;28;20057;-48
2023/03/17 03:55:01;;;;;;;7.05;3.08;;;7.40;99.90;;;;;;4954176;28;20073;-47
2023/03/17 03:57:27;;;;;;;8.57;3.47;;;7.40;99.90;;;;;;4954610;28;20121;-49
2023/03/17 03:59:53;;;;;;;6.82;3.45;;;7.40;99.90;;;;;;4937530;29;20471;-49
2023/03/17 04:02:19;;;;;;;7.78;3.47;;;7.40;99.90;;;;;;4953053;29;20463;-48
2023/03/17 04:04:45;;;;;;;5.38;2.83;;;7.50;99.90;;;;;;4953126;29;20097;-49
2023/03/17 04:07:12;;;;;;;5.50;2.80;;;7.40;99.90;;;;;;4954580;28;20042;-51
2023/03/17 04:09:38;;;;;;;6.70;3.30;;;7.40;99.90;;;;;;4954681;28;20062;-49
2023/03/17 04:12:04;;;;;;;7.25;3.28;;;7.40;99.90;;;;;;4954653;28;20075;-49
2023/03/17 04:14:30;;;;;;;5.60;3.08;;;7.40;99.90;;;;;;4952104;29;20538;-47
2023/03/17 04:16:56;;;;;;;5.80;3.03;;;7.40;99.90;;;;;;4954015;28;20064;-46
2023/03/17 04:19:22;;;;;;;7.50;3.33;;;7.40;99.90;;;;;;4952893;29;20387;-49
2023/03/17 04:21:48;;;;;;;5.95;3.22;;;7.40;99.90;;;;;;4952440;29;20050;-47
2023/03/17 04:24:14;;;;;;;5.40;3.00;;;7.30;99.90;;;;;;4954314;28;20046;-46
2023/03/17 04:26:40;;;;;;;6.78;3.03;;;7.30;99.90;;;;;;4953225;28;20043;-47
2023/03/17 04:29:07;;;;;;;6.00;3.00;;;7.30;99.90;;;;;;4953872;28;20042;-48
2023/03/17 04:31:34;;;;;;;7.53;3.60;;;7.30;99.90;;;;;;4954070;28;20129;-50
2023/03/17 04:34:00;;;;;;;5.78;3.22;;;7.30;99.90;;;;;;4952230;29;20058;-49
2023/03/17 04:36:26;;;;;;;7.30;3.25;;;7.30;99.90;;;;;;4952964;28;20043;-48
2023/03/17 04:38:52;;;;;;;6.13;3.13;;;7.30;99.90;;;;;;4954126;28;20098;-49
2023/03/17 04:41:18;;;;;;;5.10;2.65;;;7.30;99.90;;;;;;4953472;28;20487;-48
2023/03/17 04:43:45;;;;;;;5.65;2.85;;;7.30;99.90;;;;;;4954063;28;20452;-49
2023/03/17 04:46:10;;;;;;;8.23;3.28;;;7.30;99.90;;;;;;4952972;28;20035;-46
2023/03/17 04:48:36;;;;;;;6.25;3.10;;;7.30;99.90;;;;;;4952264;29;20046;-51
2023/03/17 04:51:02;;;;;;;5.63;3.08;;;7.30;99.90;;;;;;4952934;28;20499;-48
2023/03/17 04:53:28;;;;;;;5.88;3.00;;;7.30;99.90;;;;;;4952882;28;20517;-49
2023/03/17 04:55:53;;;;;;;6.75;2.95;;;7.30;99.90;;;;;;4952110;29;20031;-49
2023/03/17 04:58:19;;;;;;;6.25;3.38;;;7.30;99.90;;;;;;4952380;28;20111;-48
2023/03/17 05:00:45;;;;;;;7.88;3.05;;;7.30;99.90;;;;;;4952883;28;20039;-48
2023/03/17 05:03:11;;;;;;;6.07;3.05;;;7.30;99.90;;;;;;4953445;28;20514;-49
2023/03/17 05:05:37;;;;;;;7.97;3.08;;;7.30;99.90;;;;;;4953203;28;20051;-47
2023/03/17 05:08:03;;;;;;;5.28;2.92;;;7.30;99.90;;;;;;4953587;28;20039;-47
2023/03/17 05:10:28;;;;;;;6.68;2.78;;;7.30;99.90;;;;;;4952979;28;20027;-48
2023/03/17 05:12:54;;;;;;;6.45;3.15;;;7.30;99.90;;;;;;4953314;28;20106;-50
2023/03/17 05:15:20;;;;;;;6.75;3.22;;;7.30;99.90;;;;;;4953621;28;20035;-48
2023/03/17 05:17:46;;;;;;;5.38;2.88;;;7.30;99.90;;;;;;4953211;28;20118;-49
2023/03/17 05:20:12;;;;;;;6.75;3.30;;;7.20;99.90;;;;;;4953157;28;20098;-48
2023/03/17 05:22:39;;;;;;;5.85;3.03;;;7.20;99.90;;;;;;4952036;28;20079;-49
2023/03/17 05:25:05;;;;;;;5.72;2.90;;;7.70;99.90;;;;;;4952757;28;20039;-48
2023/03/17 05:27:31;;;;;;;10.77;3.45;;;7.20;99.90;;;;;;4952525;28;20047;-51
2023/03/17 05:29:57;;;;;;;4.97;2.88;;;7.20;99.90;;;;;;4951834;28;20039;-48
2023/03/17 05:32:23;;;;;;;7.25;3.05;;;7.60;99.90;;;;;;4952915;28;20503;-46
2023/03/17 05:34:49;;;;;;;5.93;3.42;;;7.10;99.90;;;;;;4953290;28;20406;-49
2023/03/17 05:37:15;;;;;;;5.75;3.22;;;7.10;99.90;;;;;;4952746;28;20049;-48
2023/03/17 05:39:41;;;;;;;6.00;3.00;;;7.30;99.90;;;;;;4952707;28;20110;-46
2023/03/17 05:42:07;;;;;;;6.65;3.15;;;7.60;99.90;;;;;;4951146;29;20040;-46
2023/03/17 05:44:33;;;;;;;6.50;2.90;;;7.20;99.90;;;;;;4952194;28;20054;-46
2023/03/17 05:46:59;;;;;;;7.13;3.20;;;7.20;99.90;;;;;;4952114;28;20106;-46
2023/03/17 05:49:27;;;;;;;6.60;3.35;;;7.20;99.90;;;;;;4952318;29;20471;-47
2023/03/17 05:51:54;;;;;;;5.47;3.00;;;8.10;99.90;;;;;;4951558;28;20047;-50
2023/03/17 05:54:20;;;;;;;8.05;3.25;;;7.30;99.90;;;;;;4952979;28;20039;-50
2023/03/17 05:56:46;;;;;;;5.93;3.45;;;7.30;99.90;;;;;;4951780;28;20061;-46
2023/03/17 05:59:14;;;;;;;8.43;3.33;;;7.30;99.90;;;;;;4950106;29;20043;-46
2023/03/17 06:01:40;;;;;;;9.75;3.20;;;7.30;99.90;;;;;;4952522;28;20513;-49
2023/03/17 06:04:06;;;;;;;5.72;3.10;;;7.40;99.90;;;;;;4948307;28;20035;-51
2023/03/17 06:06:32;;;;;;;7.07;3.15;;;7.40;99.90;;;;;;4949776;28;20083;-50
2023/03/17 06:08:58;;;;;;;5.90;3.25;;;7.40;99.90;;;;;;4950880;29;20047;-48
2023/03/17 06:11:25;;;;;;;5.55;3.25;;;7.40;99.90;;;;;;4949479;28;20039;-51
2023/03/17 06:13:51;;;;;;;5.57;3.30;;;7.80;99.90;;;;;;4951210;28;20086;-47
2023/03/17 06:16:17;;;;;;;5.68;3.25;;;7.50;99.90;;;;;;4951797;28;20074;-48
2023/03/17 06:18:44;;;;;;;5.13;2.78;;;7.50;99.90;;;;;;4952070;28;20170;-46
2023/03/17 06:21:11;;;;;;;7.15;3.55;;;7.50;99.90;;;;;;4951830;29;20039;-50
2023/03/17 06:23:37;;;;;;;7.15;3.22;;;7.50;99.90;;;;;;4951620;28;20427;-50
2023/03/17 06:26:03;;;;;;;8.48;3.45;;;7.50;99.90;;;;;;4950112;29;20031;-48
2023/03/17 06:28:29;;;;;;;6.88;3.38;;;7.50;99.90;;;;;;4950933;28;20038;-50
2023/03/17 06:30:55;;;;;;;7.25;3.70;;;7.50;99.90;;;;;;4951418;29;20050;-48
2023/03/17 06:33:21;;;;;;;6.55;2.83;;;7.50;99.90;;;;;;4952663;28;20149;-49
2023/03/17 06:35:47;;;;;;;6.10;3.10;;;7.60;99.90;;;;;;4952443;28;20091;-47
2023/03/17 06:38:12;;;;;;;7.18;3.33;;;7.60;99.90;;;;;;4952117;29;20039;-48
2023/03/17 06:40:38;;;;;;;6.10;3.10;;;7.70;99.90;;;;;;4949928;29;20064;-49
2023/03/17 06:43:04;;;;;;;5.97;3.30;;;7.70;99.90;;;;;;4950789;28;20126;-50
2023/03/17 06:45:31;;;;;;;7.35;3.78;;;7.80;99.90;;;;;;4951933;28;20035;-48
2023/03/17 06:47:57;;;;;;;7.97;3.28;;;7.80;99.90;;;;;;4951921;28;20043;-49
2023/03/17 06:50:24;;;;;;;6.85;3.03;;;7.70;99.90;;;;;;4951031;28;20420;-47
2023/03/17 06:52:50;;;;;;;6.43;3.05;;;7.80;99.90;;;;;;4950878;28;20039;-49
2023/03/17 06:55:16;;;;;;;8.85;3.47;;;8.00;99.90;;;;;;4948705;29;20535;-48
2023/03/17 06:57:42;;;;;;;7.07;3.20;;;7.80;99.90;;;;;;4952274;28;20483;-50
2023/03/17 07:00:11;;;;;;;6.68;3.17;;;7.80;99.90;;;;;;4952325;28;20050;-48
2023/03/17 07:02:36;;;;;;;6.43;3.15;;;7.80;99.90;;;;;;4950638;28;20047;-48
2023/03/17 07:05:03;;;;;;;6.82;3.10;;;7.80;99.90;;;;;;4947629;28;20110;-49
2023/03/17 07:07:29;;;;;;;6.30;3.60;;;7.80;99.90;;;;;;4951479;28;20138;-49
2023/03/17 07:09:54;;;;;;;7.95;3.45;;;7.90;99.90;;;;;;4951363;28;20526;-48
2023/03/17 07:12:20;;;;;;;6.38;3.58;;;7.80;99.90;;;;;;4952196;28;20067;-47
2023/03/17 07:14:46;;;;;;;7.07;3.63;;;7.80;99.90;;;;;;4950479;28;20086;-47
2023/03/17 07:17:13;;;;;;;6.28;2.92;;;7.80;99.90;;;;;;4950159;28;20059;-49
2023/03/17 07:19:39;;;;;;;7.03;3.30;;;7.80;99.90;;;;;;4965562;28;20364;-51
2023/03/17 07:22:06;;;;;;;6.93;3.80;;;7.90;99.90;;;;;;4951285;28;20158;-48
2023/03/17 07:24:32;;;;;;;6.18;3.25;;;7.90;99.90;;;;;;4952520;29;20043;-47
2023/03/17 07:26:58;;;;;;;6.38;3.33;;;7.90;99.90;;;;;;4953058;28;20039;-48
2023/03/17 07:29:23;;;;;;;5.60;3.30;;;7.90;99.90;;;;;;4954981;28;20043;-50
2023/03/17 07:31:49;;;;;;;6.78;3.70;;;8.00;99.90;;;;;;4953729;28;20048;-50
2023/03/17 07:34:15;;;;;;;6.65;3.63;;;8.10;99.90;;;;;;4947403;29;20067;-50
2023/03/17 07:36:41;;;;;;;5.88;3.55;;;8.10;99.90;;;;;;4954148;28;20051;-48
2023/03/17 07:39:07;;;;;;;6.90;3.45;;;8.10;99.90;;;;;;4946823;28;20627;-47
2023/03/17 07:41:33;;;;;;;6.65;3.65;;;8.10;99.90;;;;;;4943455;28;20434;-49
2023/03/17 07:43:59;;;;;;;10.10;3.70;;;8.20;99.90;;;;;;4944499;28;20035;-46
2023/03/17 07:46:25;;;;;;;8.35;3.60;;;8.30;99.90;;;;;;4945124;28;20038;-52
2023/03/17 07:48:52;;;;;;;6.50;3.55;;;8.30;99.90;;;;;;4945767;28;20062;-51
2023/03/17 07:51:21;;;;;;;6.68;3.35;;;8.30;99.90;;;;;;4945302;28;20455;-49
2023/03/17 07:53:48;;;;;;;6.85;3.42;;;8.40;99.90;;;;;;4943744;29;20078;-50
2023/03/17 07:56:15;;;;;;;6.50;3.67;;;8.40;99.90;;;;;;4943820;29;20043;-49
2023/03/17 07:58:41;;;;;;;6.57;3.33;;;8.50;99.90;;;;;;4944959;28;20043;-47
2023/03/17 08:01:07;;;;;;;7.65;3.75;;;8.50;99.90;;;;;;4944672;28;20094;-47
2023/03/17 08:03:33;;;;;;;7.32;3.60;;;8.60;99.90;;;;;;4943908;29;20123;-49
2023/03/17 08:05:59;;;;;;;7.75;3.75;;;8.70;99.90;;;;;;4941882;29;20067;-48
2023/03/17 08:08:27;;;;;;;8.55;3.80;;;8.80;99.90;;;;;;4944896;28;20118;-48
2023/03/17 08:11:02;;;;;;;7.88;3.28;;;8.80;99.90;;;;;;4945123;29;20027;-49
2023/03/17 08:13:29;;;;;;;6.85;3.65;;;8.80;99.90;;;;;;4945580;28;20126;-46
2023/03/17 08:15:55;;;;;;;7.85;3.83;;;8.80;99.90;;;;;;4942600;29;20118;-51
2023/03/17 08:18:20;;;;;;;6.63;3.67;;;8.90;99.90;;;;;;4944464;28;20095;-47
2023/03/17 08:20:46;;;;;;;7.00;3.80;;;8.90;99.90;;;;;;4941456;28;20296;-48
2023/03/17 08:23:13;;;;;;;6.68;3.78;;;8.90;99.90;;;;;;4939543;29;20050;-50
2023/03/17 08:25:39;;;;;;;7.18;3.20;;;8.90;99.90;;;;;;4943487;29;20719;-48
2023/03/17 08:28:04;;;;;;;7.50;3.70;;;8.80;99.90;;;;;;4944252;29;20035;-47
2023/03/17 08:30:30;;;;;;;7.05;3.97;;;8.90;99.90;;;;;;4943134;28;20046;-51
2023/03/17 08:32:56;;;;;;;5.50;3.35;;;9.00;99.90;;;;;;4942876;29;20094;-46
2023/03/17 08:35:23;;;;;;;7.47;3.75;;;9.00;99.90;;;;;;4943193;28;20280;-49
2023/03/17 08:37:49;;;;;;;13.20;3.60;;;9.00;99.90;;;;;;4943366;29;20475;-51
2023/03/17 08:40:18;;;;;;;6.57;3.67;;;9.00;99.90;;;;;;4944047;28;20082;-49
2023/03/17 08:42:45;;;;;;;7.93;3.90;;;9.00;99.90;;;;;;4943838;28;20047;-47
2023/03/17 08:45:12;;;;;;;7.68;4.00;;;9.00;99.90;;;;;;4941435;29;20043;-48
2023/03/17 08:47:39;;;;;;;5.75;3.47;;;9.00;99.90;;;;;;4942691;29;20300;-48
2023/03/17 08:50:08;;;;;;;6.38;3.60;;;9.10;99.90;;;;;;4943464;28;20114;-46
2023/03/17 08:52:35;;;;;;;6.80;3.60;;;9.20;99.90;;;;;;4944153;28;20062;-50
2023/03/17 08:55:01;;;;;;;7.35;4.10;;;9.30;99.90;;;;;;4942943;29;20110;-48
2023/03/17 08:57:27;;;;;;;6.70;3.50;;;9.50;99.90;;;;;;4939975;28;20039;-48
2023/03/17 08:59:53;;;;;;;6.60;3.85;;;9.60;99.90;;;;;;4943665;28;20039;-50
2023/03/17 09:02:19;;;;;;;6.35;3.45;;;9.80;99.90;;;;;;4940812;29;20043;-48
2023/03/17 09:04:45;;;;;;;7.07;3.47;;;9.90;99.90;;;;;;4941023;29;20384;-49
2023/03/17 09:07:12;;;;;;;7.57;3.75;;;10.00;99.90;;;;;;4943419;28;20094;-48
2023/03/17 09:09:38;;;;;;;7.78;3.40;;;10.00;99.90;;;;;;4943483;28;20567;-46
2023/03/17 09:12:05;;;;;;;7.57;3.70;;;10.10;99.90;;;;;;4942428;28;20110;-49
2023/03/17 09:14:35;;;;;;;6.68;3.50;;;10.20;99.90;;;;;;4942980;28;20042;-47
2023/03/17 09:17:01;;;;;;;6.28;3.90;;;10.30;99.90;;;;;;4942940;28;20495;-46
2023/03/17 09:19:26;;;;;;;6.32;3.25;;;10.40;99.90;;;;;;4943232;28;20089;-47
2023/03/17 09:21:52;;;;;;;6.88;3.80;;;10.40;99.90;;;;;;4944202;28;20050;-51
2023/03/17 09:24:18;;;;;;;8.90;4.13;;;10.50;99.90;;;;;;4942715;29;20043;-49
2023/03/17 09:26:44;;;;;;;8.82;3.58;;;10.70;99.90;;;;;;4942984;28;20047;-47
2023/03/17 09:29:11;;;;;;;6.20;3.45;;;10.80;99.90;;;;;;4943035;28;20419;-51
2023/03/17 09:31:37;;;;;;;6.60;3.22;;;10.80;99.90;;;;;;4942039;29;20035;-48
2023/03/17 09:34:04;;;;;;;6.72;3.95;;;11.00;99.90;;;;;;4942379;28;20110;-46
2023/03/17 09:36:33;;;;;;;7.35;3.35;;;11.10;99.90;;;;;;4939821;29;20155;-47
2023/03/17 09:39:00;;;;;;;6.95;3.55;;;11.20;99.90;;;;;;4941388;29;20067;-48
2023/03/17 09:41:56;;;;;;;5.68;3.53;;;11.30;99.90;;;;;;4937803;29;20040;-46
2023/03/17 09:44:48;;;;;;;8.48;3.97;;;11.40;99.90;;;;;;4942174;29;20162;-49
2023/03/17 09:47:38;;;;;;;9.35;4.20;;;11.50;99.90;;;;;;4940678;29;20094;-48
2023/03/17 09:50:14;;;;;;;6.82;3.95;;;11.70;99.90;;;;;;4939292;28;20031;-47
2023/03/17 09:52:41;;;;;;;8.02;4.18;;;11.80;99.90;;;;;;4942215;29;20395;-48
2023/03/17 09:55:19;;;;;;;6.57;3.55;;;11.90;99.90;;;;;;4940173;28;20127;-49
2023/03/17 09:57:46;;;;;;;7.68;4.25;;;12.00;99.90;;;;;;4941839;28;20423;-47
2023/03/17 10:00:17;;;;;;;5.53;3.63;;;12.80;99.90;;;;;;4941418;29;20328;-46
2023/03/17 10:02:44;;;;;;;5.60;3.80;;;12.10;99.90;;;;;;4940274;29;20043;-50
2023/03/17 10:05:20;;;;;;;6.60;3.58;;;12.20;99.90;;;;;;4941589;28;20049;-47
2023/03/17 10:08:01;;;;;;;6.97;3.95;;;12.30;99.90;;;;;;4940584;28;20106;-50
2023/03/17 10:10:43;;;;;;;6.22;3.83;;;12.40;99.90;;;;;;4940975;29;20526;-49
2023/03/17 10:13:21;;;;;;;8.75;4.10;;;12.50;99.90;;;;;;4941412;29;20186;-47
2023/03/17 10:15:57;;;;;;;7.93;4.45;;;12.60;99.90;;;;;;4941204;29;20593;-49
2023/03/17 10:18:28;;;;;;;6.82;4.28;;;12.60;99.90;;;;;;4942535;29;20435;-51
2023/03/17 10:21:02;;;;;;;9.32;4.00;;;12.70;99.90;;;;;;4941468;29;20039;-50
2023/03/17 10:23:30;;;;;;;6.00;3.85;;;12.80;99.90;;;;;;4940713;29;20047;-49
2023/03/17 10:26:06;;;;;;;7.35;3.85;;;12.90;99.90;;;;;;4942661;29;20514;-49
2023/03/17 10:28:35;;;;;;;8.60;4.30;;;13.00;99.90;;;;;;4942688;29;20047;-48
2023/03/17 10:31:16;;;;;;;6.90;4.28;;;13.10;99.90;;;;;;4942719;28;20139;-47
2023/03/17 10:33:45;;;;;;;8.10;4.28;;;13.30;99.90;;;;;;4941783;29;20062;-45
2023/03/17 10:36:15;;;;;;;9.00;4.50;;;13.50;99.90;;;;;;4941102;29;20062;-51
2023/03/17 10:38:50;;;;;;;7.63;4.22;;;13.60;99.90;;;;;;4939893;29;20058;-47
2023/03/17 10:41:16;;;;;;;6.60;3.83;;;13.80;99.90;;;;;;4943230;28;20098;-49
2023/03/17 10:43:47;;;;;;;5.35;3.75;;;13.90;99.90;;;;;;4939137;28;20118;-51
2023/03/17 10:46:24;;;;;;;8.02;3.65;;;14.10;99.90;;;;;;4942615;29;20171;-49
2023/03/17 10:48:57;;;;;;;7.00;3.60;;;14.20;99.90;;;;;;4940783;28;20039;-49
2023/03/17 10:51:33;;;;;;;6.22;3.90;;;14.30;99.90;;;;;;4941109;29;20415;-53
2023/03/17 10:54:02;;;;;;;8.18;3.78;;;14.40;99.90;;;;;;4942296;29;20039;-48
2023/03/17 10:56:35;;;;;;;8.27;4.03;;;14.40;99.90;;;;;;4940241;28;20039;-51
2023/03/17 10:59:19;;;;;;;8.20;4.40;;;14.50;99.90;;;;;;4946196;29;20483;-50
2023/03/17 11:01:58;;;;;;;7.85;3.70;;;14.60;99.90;;;;;;4946679;28;20402;-50
2023/03/17 11:04:29;;;;;;;6.20;3.55;;;15.60;99.90;;;;;;4945429;29;20039;-51
2023/03/17 11:06:57;;;;;;;6.55;3.92;;;14.70;99.90;;;;;;4944300;29;20043;-49
2023/03/17 11:09:25;;;;;;;8.90;3.63;;;14.70;99.90;;;;;;4946209;28;20035;-46
2023/03/17 11:12:02;;;;;;;6.70;3.78;;;14.80;99.90;;;;;;4945923;28;20048;-49
2023/03/17 11:14:28;;;;;;;5.28;3.40;;;14.90;99.90;;;;;;4945371;29;20387;-48
2023/03/17 11:17:01;;;;;;;7.30;3.83;;;14.90;99.90;;;;;;4944089;29;20054;-52
2023/03/17 11:19:48;;;;;;;7.50;3.75;;;15.00;99.90;;;;;;4945511;28;20122;-48
2023/03/17 11:22:32;;;;;;;6.75;4.07;;;15.10;99.90;;;;;;4945579;29;20390;-49
2023/03/17 11:25:22;;;;;;;6.68;3.92;;;15.30;99.90;;;;;;4945959;29;20066;-48
2023/03/17 11:28:00;;;;;;;7.07;3.63;;;15.30;99.90;;;;;;4945009;29;20102;-49
2023/03/17 11:30:46;;;;;;;7.03;4.03;;;15.20;99.90;;;;;;4946762;28;20838;-47
2023/03/17 11:33:21;;;;;;;6.93;3.92;;;15.20;99.90;;;;;;4943895;29;20087;-51
2023/03/17 11:35:59;;;;;;;7.20;3.47;;;15.30;99.90;;;;;;4947504;29;20599;-48
2023/03/17 11:38:30;;;;;;;8.02;3.75;;;15.50;99.90;;;;;;4947255;29;20458;-50
2023/03/17 11:41:27;;;;;;;7.07;3.80;;;15.60;99.90;;;;;;4948281;29;20054;-49
2023/03/17 11:44:14;;;;;;;8.32;3.78;;;15.70;99.90;;;;;;4945675;29;20455;-50
2023/03/17 11:46:48;;;;;;;7.38;3.72;;;15.70;99.90;;;;;;4947173;29;20062;-47
2023/03/17 11:49:37;;;;;;;6.70;3.67;;;15.80;99.90;;;;;;4945208;28;20048;-47
2023/03/17 11:52:22;;;;;;;8.55;4.05;;;15.80;99.90;;;;;;4944560;29;20054;-48
2023/03/17 11:54:47;;;;;;;;;;;15.80;99.90;;;;;;4939987;29;20047;-45
2023/03/17 11:57:22;;;;;;;7.65;3.78;;;15.80;99.90;;;;;;4940834;29;19919;-50
2023/03/17 11:59:57;;;;;;;7.30;3.80;;;15.90;99.90;;;;;;4946653;29;20049;-48
2023/03/17 12:02:41;;;;;;;6.78;4.03;;;16.00;99.90;;;;;;4949262;29;20082;-50
2023/03/17 12:05:14;;;;;;;7.75;3.85;;;16.00;99.90;;;;;;4949178;29;20039;-47
2023/03/17 12:07:52;;;;;;;7.28;3.70;;;16.10;99.90;;;;;;4948703;29;20122;-52
2023/03/17 12:10:35;;;;;;;8.75;3.67;;;16.30;99.90;;;;;;4943429;29;20086;-49
2023/03/17 12:13:22;;;;;;;8.82;3.72;;;16.50;99.90;;;;;;4949514;29;20058;-51
2023/03/17 12:15:56;;;;;;;9.35;4.18;;;16.50;99.90;;;;;;4952153;29;20055;-51
2023/03/17 12:18:57;;;;;;;14.38;4.05;;;16.40;99.90;;;;;;4954692;29;20051;-47
2023/03/17 12:21:45;;;;;;;7.95;4.30;;;16.30;99.90;;;;;;4946381;29;20059;-49
2023/03/17 12:24:33;;;;;;;6.93;4.13;;;16.20;99.90;;;;;;4953986;28;20122;-47
2023/03/17 12:27:12;;;;;;;8.07;4.05;;;16.20;99.90;;;;;;4952272;28;20074;-50
2023/03/17 12:29:50;;;;;;;7.53;4.20;;;16.10;99.90;;;;;;4952896;29;20065;-48
2023/03/17 12:32:34;;;;;;;8.73;4.18;;;16.10;99.90;;;;;;4954217;28;20043;-47
2023/03/17 12:35:28;;;;;;;7.50;4.47;;;16.10;99.90;;;;;;4952775;28;20101;-51
2023/03/17 12:37:57;;;;;;;8.38;4.50;;;16.00;99.90;;;;;;4950890;28;20403;-49
2023/03/17 12:40:38;;;;;;;6.88;4.43;;;16.00;99.90;;;;;;4953262;28;20051;-48
2023/03/17 12:43:32;;;;;;;7.93;4.63;;;16.00;99.90;;;;;;4952946;29;20098;-47
2023/03/17 12:46:21;;;;;;;8.48;4.82;;;16.20;99.90;;;;;;4951395;28;20035;-48
2023/03/17 12:49:07;;;;;;;7.63;5.15;;;16.40;99.90;;;;;;4951878;29;20071;-49
2023/03/17 12:52:23;;;;;;;9.70;5.32;;;16.60;99.90;;;;;;4954211;29;20043;-47
2023/03/17 12:54:51;;;;;;;8.57;4.95;;;16.70;99.90;;;;;;4950801;29;20047;-46
2023/03/17 12:57:18;;;;;;;7.90;5.38;;;16.70;99.90;;;;;;4952791;28;20043;-47
2023/03/17 12:59:46;;;;;;;9.77;5.10;;;16.80;99.90;;;;;;4953433;28;20085;-50
2023/03/17 13:02:34;;;;;;;8.43;5.10;;;17.00;99.90;;;;;;4953372;28;20039;-48
2023/03/17 13:05:04;;;;;;;9.05;5.35;;;17.00;99.90;;;;;;4952502;29;20174;-50
2023/03/17 13:07:51;;;;;;;8.20;4.70;;;17.10;99.90;;;;;;4953754;28;20484;-50